Terminal Aerodrome Forecast
Issued by NWS Buffalo, NY

Home | Current Version | Previous Version | Text Only | Print | Product List | Glossary On
Versions: 1 2 3 4 5 6 7 8 9 10 11 12 13 14 15 16 17 18 19 20 21 22 23 24 25 26 27 28 29 30 31 32 33 34
000
FTUS41 KBUF 021100
TAFART
TAF
KART 021126Z 0212/0312 24005KT 2SM -SN BR BKN035 OVC070
     FM021400 26015G22KT 5SM -SHSN BLSN BKN030
     FM021700 26019G29KT P6SM BKN035
     FM022100 26019G27KT P6SM SCT040
     FM030100 26008KT P6SM SCT200
     FM030900 16004KT P6SM SCT250=

USA.gov is the U.S. government's official web portal to all federal, state and local government web resources and services.